sensor_id;sensor_type;location;lat;lon;timestamp;P1;durP1;ratioP1;P2;durP2;ratioP2
62790;SDS011;48830;53.426;10.300;2024-03-08T00:01:05;3.13;;;2.08;;
62790;SDS011;48830;53.426;10.300;2024-03-08T00:03:32;3.28;;;2.08;;
62790;SDS011;48830;53.426;10.300;2024-03-08T00:05:58;3.15;;;2.08;;
62790;SDS011;48830;53.426;10.300;2024-03-08T00:08:23;3.22;;;2.00;;
62790;SDS011;48830;53.426;10.300;2024-03-08T00:10:48;4.30;;;2.15;;
62790;SDS011;48830;53.426;10.300;2024-03-08T00:13:14;3.83;;;2.22;;
62790;SDS011;48830;53.426;10.300;2024-03-08T00:15:40;3.10;;;2.10;;
62790;SDS011;48830;53.426;10.300;2024-03-08T00:18:06;3.00;;;2.05;;
62790;SDS011;48830;53.426;10.300;2024-03-08T00:20:32;4.72;;;2.20;;
62790;SDS011;48830;53.426;10.300;2024-03-08T00:22:58;3.70;;;2.15;;
62790;SDS011;48830;53.426;10.300;2024-03-08T00:25:24;3.00;;;1.95;;
62790;SDS011;48830;53.426;10.300;2024-03-08T00:27:49;3.72;;;2.13;;
62790;SDS011;48830;53.426;10.300;2024-03-08T00:30:15;3.92;;;2.00;;
62790;SDS011;48830;53.426;10.300;2024-03-08T00:32:40;4.43;;;2.22;;
62790;SDS011;48830;53.426;10.300;2024-03-08T00:35:06;4.05;;;2.15;;
62790;SDS011;48830;53.426;10.300;2024-03-08T00:37:32;3.50;;;2.20;;
62790;SDS011;48830;53.426;10.300;2024-03-08T00:39:59;4.28;;;2.15;;
62790;SDS011;48830;53.426;10.300;2024-03-08T00:42:24;4.18;;;2.40;;
62790;SDS011;48830;53.426;10.300;2024-03-08T00:44:50;4.03;;;1.90;;
62790;SDS011;48830;53.426;10.300;2024-03-08T00:47:16;4.45;;;2.00;;
62790;SDS011;48830;53.426;10.300;2024-03-08T00:49:41;4.43;;;2.20;;
62790;SDS011;48830;53.426;10.300;2024-03-08T00:52:07;3.95;;;1.98;;
62790;SDS011;48830;53.426;10.300;2024-03-08T00:54:33;3.63;;;2.20;;
62790;SDS011;48830;53.426;10.300;2024-03-08T00:57:01;3.83;;;2.10;;
62790;SDS011;48830;53.426;10.300;2024-03-08T00:59:30;3.65;;;2.00;;
62790;SDS011;48830;53.426;10.300;2024-03-08T01:02:02;3.78;;;2.03;;
62790;SDS011;48830;53.426;10.300;2024-03-08T01:04:27;3.13;;;1.85;;
62790;SDS011;48830;53.426;10.300;2024-03-08T01:06:57;3.80;;;2.08;;
62790;SDS011;48830;53.426;10.300;2024-03-08T01:09:23;4.75;;;2.17;;
62790;SDS011;48830;53.426;10.300;2024-03-08T01:11:49;4.45;;;2.10;;
62790;SDS011;48830;53.426;10.300;2024-03-08T01:14:15;3.90;;;2.10;;
62790;SDS011;48830;53.426;10.300;2024-03-08T01:16:40;3.75;;;2.20;;
62790;SDS011;48830;53.426;10.300;2024-03-08T01:19:06;3.65;;;2.10;;
62790;SDS011;48830;53.426;10.300;2024-03-08T01:21:31;4.18;;;2.08;;
62790;SDS011;48830;53.426;10.300;2024-03-08T01:23:57;3.72;;;2.40;;
62790;SDS011;48830;53.426;10.300;2024-03-08T01:26:22;3.25;;;2.20;;
62790;SDS011;48830;53.426;10.300;2024-03-08T01:28:48;4.07;;;2.20;;
62790;SDS011;48830;53.426;10.300;2024-03-08T01:31:14;4.35;;;2.50;;
62790;SDS011;48830;53.426;10.300;2024-03-08T01:33:41;3.92;;;2.20;;
62790;SDS011;48830;53.426;10.300;2024-03-08T01:36:07;4.88;;;2.03;;
62790;SDS011;48830;53.426;10.300;2024-03-08T01:38:32;3.83;;;2.05;;
62790;SDS011;48830;53.426;10.300;2024-03-08T01:40:58;3.97;;;2.35;;
62790;SDS011;48830;53.426;10.300;2024-03-08T01:43:27;5.38;;;2.33;;
62790;SDS011;48830;53.426;10.300;2024-03-08T01:45:54;4.10;;;2.10;;
62790;SDS011;48830;53.426;10.300;2024-03-08T01:48:20;5.07;;;2.10;;
62790;SDS011;48830;53.426;10.300;2024-03-08T01:50:49;3.83;;;2.35;;
62790;SDS011;48830;53.426;10.300;2024-03-08T01:53:15;3.72;;;2.25;;
62790;SDS011;48830;53.426;10.300;2024-03-08T01:55:42;3.65;;;1.88;;
62790;SDS011;48830;53.426;10.300;2024-03-08T01:58:11;3.33;;;1.98;;
62790;SDS011;48830;53.426;10.300;2024-03-08T02:00:41;4.07;;;2.30;;
62790;SDS011;48830;53.426;10.300;2024-03-08T02:03:08;3.28;;;2.13;;
62790;SDS011;48830;53.426;10.300;2024-03-08T02:05:34;4.85;;;2.05;;
62790;SDS011;48830;53.426;10.300;2024-03-08T02:08:00;3.45;;;2.00;;
62790;SDS011;48830;53.426;10.300;2024-03-08T02:10:28;3.63;;;2.00;;
62790;SDS011;48830;53.426;10.300;2024-03-08T02:12:53;4.50;;;2.00;;
62790;SDS011;48830;53.426;10.300;2024-03-08T02:15:20;3.55;;;2.05;;
62790;SDS011;48830;53.426;10.300;2024-03-08T02:17:46;3.40;;;2.08;;
62790;SDS011;48830;53.426;10.300;2024-03-08T02:20:12;3.72;;;2.30;;
62790;SDS011;48830;53.426;10.300;2024-03-08T02:22:38;3.58;;;2.17;;
62790;SDS011;48830;53.426;10.300;2024-03-08T02:25:03;3.88;;;2.00;;
62790;SDS011;48830;53.426;10.300;2024-03-08T02:27:30;3.90;;;2.10;;
62790;SDS011;48830;53.426;10.300;2024-03-08T02:29:56;3.15;;;1.88;;
62790;SDS011;48830;53.426;10.300;2024-03-08T02:32:25;2.53;;;1.88;;
62790;SDS011;48830;53.426;10.300;2024-03-08T02:34:50;2.70;;;1.88;;
62790;SDS011;48830;53.426;10.300;2024-03-08T02:37:16;4.28;;;2.00;;
62790;SDS011;48830;53.426;10.300;2024-03-08T02:39:42;3.90;;;2.30;;
62790;SDS011;48830;53.426;10.300;2024-03-08T02:42:08;3.33;;;2.10;;
62790;SDS011;48830;53.426;10.300;2024-03-08T02:44:33;3.75;;;2.00;;
62790;SDS011;48830;53.426;10.300;2024-03-08T02:46:59;3.72;;;2.00;;
62790;SDS011;48830;53.426;10.300;2024-03-08T02:49:25;3.85;;;2.17;;
62790;SDS011;48830;53.426;10.300;2024-03-08T02:51:53;3.13;;;1.83;;
62790;SDS011;48830;53.426;10.300;2024-03-08T02:54:19;4.88;;;2.30;;
62790;SDS011;48830;53.426;10.300;2024-03-08T02:56:45;3.05;;;1.95;;
62790;SDS011;48830;53.426;10.300;2024-03-08T02:59:12;4.85;;;2.10;;
62790;SDS011;48830;53.426;10.300;2024-03-08T03:01:37;3.35;;;2.00;;
62790;SDS011;48830;53.426;10.300;2024-03-08T03:04:03;2.47;;;1.90;;
62790;SDS011;48830;53.426;10.300;2024-03-08T03:06:29;3.25;;;2.00;;
62790;SDS011;48830;53.426;10.300;2024-03-08T03:08:54;3.40;;;2.05;;
62790;SDS011;48830;53.426;10.300;2024-03-08T03:11:22;3.13;;;1.85;;
62790;SDS011;48830;53.426;10.300;2024-03-08T03:13:48;3.22;;;1.95;;
62790;SDS011;48830;53.426;10.300;2024-03-08T03:16:17;2.85;;;1.70;;
62790;SDS011;48830;53.426;10.300;2024-03-08T03:18:46;3.55;;;2.00;;
62790;SDS011;48830;53.426;10.300;2024-03-08T03:21:12;3.05;;;1.85;;
62790;SDS011;48830;53.426;10.300;2024-03-08T03:23:38;3.78;;;1.90;;
62790;SDS011;48830;53.426;10.300;2024-03-08T03:26:05;2.80;;;1.90;;
62790;SDS011;48830;53.426;10.300;2024-03-08T03:28:32;3.03;;;1.83;;
62790;SDS011;48830;53.426;10.300;2024-03-08T03:30:58;3.33;;;2.00;;
62790;SDS011;48830;53.426;10.300;2024-03-08T03:33:24;2.85;;;1.80;;
62790;SDS011;48830;53.426;10.300;2024-03-08T03:35:50;4.25;;;2.10;;
62790;SDS011;48830;53.426;10.300;2024-03-08T03:38:17;4.40;;;1.98;;
62790;SDS011;48830;53.426;10.300;2024-03-08T03:40:42;3.25;;;1.92;;
62790;SDS011;48830;53.426;10.300;2024-03-08T03:43:10;3.90;;;2.15;;
62790;SDS011;48830;53.426;10.300;2024-03-08T03:45:36;3.55;;;2.03;;
62790;SDS011;48830;53.426;10.300;2024-03-08T03:48:04;2.90;;;1.60;;
62790;SDS011;48830;53.426;10.300;2024-03-08T03:50:34;4.20;;;2.00;;
62790;SDS011;48830;53.426;10.300;2024-03-08T03:53:00;2.90;;;1.83;;
62790;SDS011;48830;53.426;10.300;2024-03-08T03:55:26;3.45;;;1.92;;
62790;SDS011;48830;53.426;10.300;2024-03-08T03:57:52;3.65;;;2.00;;
62790;SDS011;48830;53.426;10.300;2024-03-08T04:00:18;3.33;;;1.90;;
62790;SDS011;48830;53.426;10.300;2024-03-08T04:02:43;3.38;;;2.00;;
62790;SDS011;48830;53.426;10.300;2024-03-08T04:05:09;2.50;;;1.80;;
62790;SDS011;48830;53.426;10.300;2024-03-08T04:07:35;3.22;;;1.75;;
62790;SDS011;48830;53.426;10.300;2024-03-08T04:10:02;2.72;;;1.85;;
62790;SDS011;48830;53.426;10.300;2024-03-08T04:12:28;2.83;;;1.80;;
62790;SDS011;48830;53.426;10.300;2024-03-08T04:14:55;2.72;;;1.92;;
62790;SDS011;48830;53.426;10.300;2024-03-08T04:17:21;3.65;;;1.90;;
62790;SDS011;48830;53.426;10.300;2024-03-08T04:19:46;2.95;;;2.00;;
62790;SDS011;48830;53.426;10.300;2024-03-08T04:22:13;4.95;;;1.92;;
62790;SDS011;48830;53.426;10.300;2024-03-08T04:24:39;3.15;;;1.92;;
62790;SDS011;48830;53.426;10.300;2024-03-08T04:27:05;1.98;;;1.63;;
62790;SDS011;48830;53.426;10.300;2024-03-08T04:29:31;3.65;;;2.00;;
62790;SDS011;48830;53.426;10.300;2024-03-08T04:31:58;2.78;;;1.70;;
62790;SDS011;48830;53.426;10.300;2024-03-08T04:34:23;2.80;;;1.80;;
62790;SDS011;48830;53.426;10.300;2024-03-08T04:36:49;3.88;;;2.10;;
62790;SDS011;48830;53.426;10.300;2024-03-08T04:39:14;4.57;;;2.00;;
62790;SDS011;48830;53.426;10.300;2024-03-08T04:41:40;2.42;;;1.55;;
62790;SDS011;48830;53.426;10.300;2024-03-08T04:44:09;2.92;;;1.73;;
62790;SDS011;48830;53.426;10.300;2024-03-08T04:46:35;2.88;;;1.83;;
62790;SDS011;48830;53.426;10.300;2024-03-08T04:49:01;2.95;;;1.90;;
62790;SDS011;48830;53.426;10.300;2024-03-08T04:51:26;3.13;;;1.70;;
62790;SDS011;48830;53.426;10.300;2024-03-08T04:53:52;2.70;;;1.90;;
62790;SDS011;48830;53.426;10.300;2024-03-08T04:56:17;3.10;;;1.92;;
62790;SDS011;48830;53.426;10.300;2024-03-08T04:58:44;3.13;;;1.98;;
62790;SDS011;48830;53.426;10.300;2024-03-08T05:01:11;3.40;;;2.00;;
62790;SDS011;48830;53.426;10.300;2024-03-08T05:03:37;2.25;;;1.70;;
62790;SDS011;48830;53.426;10.300;2024-03-08T05:06:03;2.92;;;1.90;;
62790;SDS011;48830;53.426;10.300;2024-03-08T05:08:29;2.65;;;1.70;;
62790;SDS011;48830;53.426;10.300;2024-03-08T05:10:54;3.13;;;2.00;;
62790;SDS011;48830;53.426;10.300;2024-03-08T05:13:20;3.25;;;1.90;;
62790;SDS011;48830;53.426;10.300;2024-03-08T05:15:49;2.88;;;1.80;;
62790;SDS011;48830;53.426;10.300;2024-03-08T05:18:17;4.07;;;2.33;;
62790;SDS011;48830;53.426;10.300;2024-03-08T05:20:43;2.70;;;1.90;;
62790;SDS011;48830;53.426;10.300;2024-03-08T05:23:08;1.80;;;1.52;;
62790;SDS011;48830;53.426;10.300;2024-03-08T05:25:34;2.75;;;1.83;;
62790;SDS011;48830;53.426;10.300;2024-03-08T05:27:59;3.05;;;1.70;;
62790;SDS011;48830;53.426;10.300;2024-03-08T05:30:25;2.65;;;1.70;;
62790;SDS011;48830;53.426;10.300;2024-03-08T05:32:50;2.45;;;1.60;;
62790;SDS011;48830;53.426;10.300;2024-03-08T05:35:16;3.15;;;2.00;;
62790;SDS011;48830;53.426;10.300;2024-03-08T05:37:42;2.58;;;1.80;;
62790;SDS011;48830;53.426;10.300;2024-03-08T05:40:08;3.00;;;1.80;;
62790;SDS011;48830;53.426;10.300;2024-03-08T05:42:37;3.53;;;2.05;;
62790;SDS011;48830;53.426;10.300;2024-03-08T05:45:03;2.95;;;1.80;;
62790;SDS011;48830;53.426;10.300;2024-03-08T05:47:31;3.38;;;1.77;;
62790;SDS011;48830;53.426;10.300;2024-03-08T05:49:57;3.58;;;1.90;;
62790;SDS011;48830;53.426;10.300;2024-03-08T05:52:24;3.08;;;1.90;;
62790;SDS011;48830;53.426;10.300;2024-03-08T05:54:51;2.72;;;2.00;;
62790;SDS011;48830;53.426;10.300;2024-03-08T05:57:16;3.03;;;1.80;;
62790;SDS011;48830;53.426;10.300;2024-03-08T05:59:42;3.30;;;1.85;;
62790;SDS011;48830;53.426;10.300;2024-03-08T06:02:07;2.53;;;1.70;;
62790;SDS011;48830;53.426;10.300;2024-03-08T06:04:33;3.15;;;1.90;;
62790;SDS011;48830;53.426;10.300;2024-03-08T06:06:58;2.85;;;1.58;;
62790;SDS011;48830;53.426;10.300;2024-03-08T06:09:24;3.15;;;2.03;;
62790;SDS011;48830;53.426;10.300;2024-03-08T06:11:50;2.50;;;1.70;;
62790;SDS011;48830;53.426;10.300;2024-03-08T06:14:19;2.75;;;1.80;;
62790;SDS011;48830;53.426;10.300;2024-03-08T06:16:45;3.35;;;1.80;;
62790;SDS011;48830;53.426;10.300;2024-03-08T06:19:10;2.90;;;2.03;;
62790;SDS011;48830;53.426;10.300;2024-03-08T06:21:37;3.13;;;1.90;;
62790;SDS011;48830;53.426;10.300;2024-03-08T06:24:02;2.63;;;1.70;;
62790;SDS011;48830;53.426;10.300;2024-03-08T06:26:28;2.05;;;1.50;;
62790;SDS011;48830;53.426;10.300;2024-03-08T06:28:54;1.92;;;1.67;;
62790;SDS011;48830;53.426;10.300;2024-03-08T06:31:19;2.55;;;1.80;;
62790;SDS011;48830;53.426;10.300;2024-03-08T06:33:45;3.33;;;1.77;;
62790;SDS011;48830;53.426;10.300;2024-03-08T06:36:11;1.80;;;1.38;;
62790;SDS011;48830;53.426;10.300;2024-03-08T06:38:40;3.15;;;1.80;;
62790;SDS011;48830;53.426;10.300;2024-03-08T06:41:11;3.20;;;1.83;;
62790;SDS011;48830;53.426;10.300;2024-03-08T06:43:43;2.65;;;1.52;;
62790;SDS011;48830;53.426;10.300;2024-03-08T06:46:09;2.58;;;1.77;;
62790;SDS011;48830;53.426;10.300;2024-03-08T06:48:35;8.35;;;1.83;;
62790;SDS011;48830;53.426;10.300;2024-03-08T06:51:02;3.35;;;1.70;;
62790;SDS011;48830;53.426;10.300;2024-03-08T06:53:28;3.95;;;1.98;;
62790;SDS011;48830;53.426;10.300;2024-03-08T06:55:53;2.97;;;1.75;;
62790;SDS011;48830;53.426;10.300;2024-03-08T06:58:19;3.17;;;1.75;;
62790;SDS011;48830;53.426;10.300;2024-03-08T07:00:45;2.80;;;1.80;;
62790;SDS011;48830;53.426;10.300;2024-03-08T07:03:10;2.90;;;1.90;;
62790;SDS011;48830;53.426;10.300;2024-03-08T07:05:37;3.00;;;1.88;;
62790;SDS011;48830;53.426;10.300;2024-03-08T07:08:03;2.97;;;1.85;;
62790;SDS011;48830;53.426;10.300;2024-03-08T07:10:29;2.47;;;1.60;;
62790;SDS011;48830;53.426;10.300;2024-03-08T07:12:54;2.28;;;1.73;;
62790;SDS011;48830;53.426;10.300;2024-03-08T07:15:20;3.22;;;1.75;;
62790;SDS011;48830;53.426;10.300;2024-03-08T07:17:46;3.17;;;1.73;;
62790;SDS011;48830;53.426;10.300;2024-03-08T07:20:15;2.53;;;1.60;;
62790;SDS011;48830;53.426;10.300;2024-03-08T07:22:44;3.13;;;2.00;;
62790;SDS011;48830;53.426;10.300;2024-03-08T07:25:12;2.55;;;1.70;;
62790;SDS011;48830;53.426;10.300;2024-03-08T07:30:17;2.83;;;1.67;;
62790;SDS011;48830;53.426;10.300;2024-03-08T07:33:01;3.05;;;1.95;;
62790;SDS011;48830;53.426;10.300;2024-03-08T07:35:27;4.18;;;2.00;;
62790;SDS011;48830;53.426;10.300;2024-03-08T07:37:53;2.97;;;1.65;;
62790;SDS011;48830;53.426;10.300;2024-03-08T07:40:20;3.47;;;1.83;;
62790;SDS011;48830;53.426;10.300;2024-03-08T07:42:46;2.97;;;1.80;;
62790;SDS011;48830;53.426;10.300;2024-03-08T07:45:11;2.47;;;1.67;;
62790;SDS011;48830;53.426;10.300;2024-03-08T07:47:38;3.53;;;2.03;;
62790;SDS011;48830;53.426;10.300;2024-03-08T07:50:03;2.70;;;1.90;;
62790;SDS011;48830;53.426;10.300;2024-03-08T07:52:29;3.25;;;1.88;;
62790;SDS011;48830;53.426;10.300;2024-03-08T07:54:54;3.40;;;1.92;;
62790;SDS011;48830;53.426;10.300;2024-03-08T07:57:20;3.17;;;1.77;;
62790;SDS011;48830;53.426;10.300;2024-03-08T07:59:46;3.15;;;2.00;;
62790;SDS011;48830;53.426;10.300;2024-03-08T08:02:11;2.92;;;1.80;;
62790;SDS011;48830;53.426;10.300;2024-03-08T08:04:37;3.35;;;1.90;;
62790;SDS011;48830;53.426;10.300;2024-03-08T08:07:03;3.92;;;1.80;;
62790;SDS011;48830;53.426;10.300;2024-03-08T08:09:29;2.85;;;1.90;;
62790;SDS011;48830;53.426;10.300;2024-03-08T08:11:59;2.47;;;1.58;;
62790;SDS011;48830;53.426;10.300;2024-03-08T08:14:27;2.97;;;1.80;;
62790;SDS011;48830;53.426;10.300;2024-03-08T08:16:53;2.45;;;1.70;;
62790;SDS011;48830;53.426;10.300;2024-03-08T08:19:20;2.40;;;1.77;;
62790;SDS011;48830;53.426;10.300;2024-03-08T08:21:46;2.75;;;1.80;;
62790;SDS011;48830;53.426;10.300;2024-03-08T08:24:12;3.28;;;2.00;;
62790;SDS011;48830;53.426;10.300;2024-03-08T08:26:37;2.58;;;1.70;;
62790;SDS011;48830;53.426;10.300;2024-03-08T08:29:03;3.70;;;1.98;;
62790;SDS011;48830;53.426;10.300;2024-03-08T08:31:28;2.83;;;1.92;;
62790;SDS011;48830;53.426;10.300;2024-03-08T08:33:54;3.47;;;2.08;;
62790;SDS011;48830;53.426;10.300;2024-03-08T08:36:26;2.40;;;1.70;;
62790;SDS011;48830;53.426;10.300;2024-03-08T08:38:51;3.63;;;2.00;;
62790;SDS011;48830;53.426;10.300;2024-03-08T08:41:19;3.28;;;1.80;;
62790;SDS011;48830;53.426;10.300;2024-03-08T08:43:46;2.25;;;1.75;;
62790;SDS011;48830;53.426;10.300;2024-03-08T08:46:11;3.50;;;1.80;;
62790;SDS011;48830;53.426;10.300;2024-03-08T08:48:39;2.85;;;1.75;;
62790;SDS011;48830;53.426;10.300;2024-03-08T08:51:10;2.60;;;1.70;;
62790;SDS011;48830;53.426;10.300;2024-03-08T08:53:41;2.90;;;1.63;;
62790;SDS011;48830;53.426;10.300;2024-03-08T08:56:12;3.08;;;1.70;;
62790;SDS011;48830;53.426;10.300;2024-03-08T08:58:39;2.70;;;1.75;;
62790;SDS011;48830;53.426;10.300;2024-03-08T09:01:06;2.75;;;1.67;;
62790;SDS011;48830;53.426;10.300;2024-03-08T09:03:32;3.05;;;1.95;;
62790;SDS011;48830;53.426;10.300;2024-03-08T09:06:00;2.13;;;1.48;;
62790;SDS011;48830;53.426;10.300;2024-03-08T09:08:25;3.55;;;1.80;;
62790;SDS011;48830;53.426;10.300;2024-03-08T09:10:51;4.05;;;2.10;;
62790;SDS011;48830;53.426;10.300;2024-03-08T09:13:16;2.90;;;2.00;;
62790;SDS011;48830;53.426;10.300;2024-03-08T09:15:42;2.85;;;1.70;;
62790;SDS011;48830;53.426;10.300;2024-03-08T09:18:07;4.03;;;2.00;;
62790;SDS011;48830;53.426;10.300;2024-03-08T09:20:34;2.60;;;1.70;;
62790;SDS011;48830;53.426;10.300;2024-03-08T09:22:59;3.65;;;1.92;;
62790;SDS011;48830;53.426;10.300;2024-03-08T09:25:25;4.60;;;1.90;;
62790;SDS011;48830;53.426;10.300;2024-03-08T09:27:51;4.50;;;2.17;;
62790;SDS011;48830;53.426;10.300;2024-03-08T09:30:16;3.92;;;2.13;;
62790;SDS011;48830;53.426;10.300;2024-03-08T09:32:43;5.00;;;2.38;;
62790;SDS011;48830;53.426;10.300;2024-03-08T09:35:09;8.82;;;2.80;;
62790;SDS011;48830;53.426;10.300;2024-03-08T09:37:34;9.20;;;3.38;;
62790;SDS011;48830;53.426;10.300;2024-03-08T09:40:00;8.00;;;2.50;;
62790;SDS011;48830;53.426;10.300;2024-03-08T09:42:29;10.73;;;3.17;;
62790;SDS011;48830;53.426;10.300;2024-03-08T09:44:57;7.18;;;3.05;;
62790;SDS011;48830;53.426;10.300;2024-03-08T09:47:24;10.15;;;3.05;;
62790;SDS011;48830;53.426;10.300;2024-03-08T09:49:52;10.38;;;3.28;;
62790;SDS011;48830;53.426;10.300;2024-03-08T09:52:18;11.77;;;3.33;;
62790;SDS011;48830;53.426;10.300;2024-03-08T09:54:43;11.43;;;3.08;;
62790;SDS011;48830;53.426;10.300;2024-03-08T09:57:09;9.05;;;3.38;;
62790;SDS011;48830;53.426;10.300;2024-03-08T09:59:35;10.90;;;3.47;;
62790;SDS011;48830;53.426;10.300;2024-03-08T10:02:01;11.23;;;3.30;;
62790;SDS011;48830;53.426;10.300;2024-03-08T10:04:28;10.82;;;3.30;;
62790;SDS011;48830;53.426;10.300;2024-03-08T10:06:57;10.52;;;4.03;;
62790;SDS011;48830;53.426;10.300;2024-03-08T10:09:24;10.05;;;3.13;;
62790;SDS011;48830;53.426;10.300;2024-03-08T10:11:58;9.70;;;3.28;;
62790;SDS011;48830;53.426;10.300;2024-03-08T10:14:26;10.40;;;3.35;;
62790;SDS011;48830;53.426;10.300;2024-03-08T10:16:52;10.90;;;3.63;;
62790;SDS011;48830;53.426;10.300;2024-03-08T10:19:18;8.57;;;2.97;;
62790;SDS011;48830;53.426;10.300;2024-03-08T10:21:48;8.23;;;3.10;;
62790;SDS011;48830;53.426;10.300;2024-03-08T10:24:14;7.95;;;3.70;;
62790;SDS011;48830;53.426;10.300;2024-03-08T10:26:40;7.47;;;3.10;;
62790;SDS011;48830;53.426;10.300;2024-03-08T10:29:05;8.48;;;3.50;;
62790;SDS011;48830;53.426;10.300;2024-03-08T10:31:32;7.47;;;3.15;;
62790;SDS011;48830;53.426;10.300;2024-03-08T10:33:58;7.13;;;3.00;;
62790;SDS011;48830;53.426;10.300;2024-03-08T10:36:24;8.55;;;3.33;;
62790;SDS011;48830;53.426;10.300;2024-03-08T10:38:50;9.73;;;3.90;;
62790;SDS011;48830;53.426;10.300;2024-03-08T10:41:18;8.98;;;3.58;;
62790;SDS011;48830;53.426;10.300;2024-03-08T10:44:02;6.93;;;3.13;;
62790;SDS011;48830;53.426;10.300;2024-03-08T10:52:39;7.22;;;3.28;;
62790;SDS011;48830;53.426;10.300;2024-03-08T10:55:05;7.93;;;3.63;;
62790;SDS011;48830;53.426;10.300;2024-03-08T10:57:38;8.48;;;3.95;;
62790;SDS011;48830;53.426;10.300;2024-03-08T11:00:05;7.70;;;3.30;;
62790;SDS011;48830;53.426;10.300;2024-03-08T11:02:35;10.02;;;3.45;;
62790;SDS011;48830;53.426;10.300;2024-03-08T11:05:02;7.40;;;3.63;;
62790;SDS011;48830;53.426;10.300;2024-03-08T11:07:33;8.55;;;3.17;;
62790;SDS011;48830;53.426;10.300;2024-03-08T11:10:02;6.28;;;3.22;;
62790;SDS011;48830;53.426;10.300;2024-03-08T11:12:37;8.30;;;3.65;;
62790;SDS011;48830;53.426;10.300;2024-03-08T11:15:10;6.95;;;3.30;;
62790;SDS011;48830;53.426;10.300;2024-03-08T11:17:44;8.23;;;3.17;;
62790;SDS011;48830;53.426;10.300;2024-03-08T11:20:12;6.50;;;3.35;;
62790;SDS011;48830;53.426;10.300;2024-03-08T11:22:41;7.53;;;3.60;;
62790;SDS011;48830;53.426;10.300;2024-03-08T11:25:37;6.55;;;3.22;;
62790;SDS011;48830;53.426;10.300;2024-03-08T11:28:28;9.82;;;3.40;;
62790;SDS011;48830;53.426;10.300;2024-03-08T11:33:30;7.43;;;3.40;;
62790;SDS011;48830;53.426;10.300;2024-03-08T11:38:42;7.80;;;3.65;;
62790;SDS011;48830;53.426;10.300;2024-03-08T11:41:19;7.63;;;3.20;;
62790;SDS011;48830;53.426;10.300;2024-03-08T11:43:46;7.38;;;3.15;;
62790;SDS011;48830;53.426;10.300;2024-03-08T11:46:12;7.18;;;3.20;;
62790;SDS011;48830;53.426;10.300;2024-03-08T11:48:42;6.25;;;3.40;;
62790;SDS011;48830;53.426;10.300;2024-03-08T11:51:09;6.13;;;3.30;;
62790;SDS011;48830;53.426;10.300;2024-03-08T11:53:37;6.55;;;3.10;;
62790;SDS011;48830;53.426;10.300;2024-03-08T11:58:39;5.70;;;3.20;;
62790;SDS011;48830;53.426;10.300;2024-03-08T12:01:09;6.80;;;3.30;;
62790;SDS011;48830;53.426;10.300;2024-03-08T12:03:39;6.25;;;3.30;;
62790;SDS011;48830;53.426;10.300;2024-03-08T12:06:07;6.13;;;3.28;;
62790;SDS011;48830;53.426;10.300;2024-03-08T12:08:36;8.07;;;3.38;;
62790;SDS011;48830;53.426;10.300;2024-03-08T12:11:03;6.32;;;3.60;;
62790;SDS011;48830;53.426;10.300;2024-03-08T12:13:30;6.13;;;3.20;;
62790;SDS011;48830;53.426;10.300;2024-03-08T12:15:57;6.45;;;3.25;;
62790;SDS011;48830;53.426;10.300;2024-03-08T12:18:27;7.50;;;3.83;;
62790;SDS011;48830;53.426;10.300;2024-03-08T12:21:07;6.97;;;3.40;;
62790;SDS011;48830;53.426;10.300;2024-03-08T12:23:35;7.78;;;3.45;;
62790;SDS011;48830;53.426;10.300;2024-03-08T12:26:15;7.43;;;3.35;;
62790;SDS011;48830;53.426;10.300;2024-03-08T12:28:42;6.28;;;3.90;;
62790;SDS011;48830;53.426;10.300;2024-03-08T12:31:13;6.65;;;3.45;;
62790;SDS011;48830;53.426;10.300;2024-03-08T12:33:52;6.10;;;3.30;;
62790;SDS011;48830;53.426;10.300;2024-03-08T12:36:18;6.90;;;3.00;;
62790;SDS011;48830;53.426;10.300;2024-03-08T12:38:48;5.95;;;3.15;;
62790;SDS011;48830;53.426;10.300;2024-03-08T12:41:14;6.65;;;3.60;;
62790;SDS011;48830;53.426;10.300;2024-03-08T12:43:42;7.85;;;3.47;;
62790;SDS011;48830;53.426;10.300;2024-03-08T12:46:07;6.90;;;3.42;;
62790;SDS011;48830;53.426;10.300;2024-03-08T12:48:34;7.72;;;3.10;;
62790;SDS011;48830;53.426;10.300;2024-03-08T12:51:08;6.65;;;3.55;;
62790;SDS011;48830;53.426;10.300;2024-03-08T12:53:34;5.70;;;3.22;;
62790;SDS011;48830;53.426;10.300;2024-03-08T12:56:00;5.53;;;2.92;;
62790;SDS011;48830;53.426;10.300;2024-03-08T12:58:25;6.32;;;3.30;;
62790;SDS011;48830;53.426;10.300;2024-03-08T13:00:51;6.78;;;3.40;;
62790;SDS011;48830;53.426;10.300;2024-03-08T13:03:17;6.18;;;3.10;;
62790;SDS011;48830;53.426;10.300;2024-03-08T13:05:43;5.65;;;2.88;;
62790;SDS011;48830;53.426;10.300;2024-03-08T13:08:08;6.35;;;3.40;;
62790;SDS011;48830;53.426;10.300;2024-03-08T13:10:41;6.43;;;3.25;;
62790;SDS011;48830;53.426;10.300;2024-03-08T13:13:11;6.50;;;3.30;;
62790;SDS011;48830;53.426;10.300;2024-03-08T13:15:40;5.05;;;3.00;;
62790;SDS011;48830;53.426;10.300;2024-03-08T13:18:06;5.80;;;3.70;;
62790;SDS011;48830;53.426;10.300;2024-03-08T13:20:34;6.90;;;3.65;;
62790;SDS011;48830;53.426;10.300;2024-03-08T13:23:02;6.88;;;3.13;;
62790;SDS011;48830;53.426;10.300;2024-03-08T13:25:30;7.00;;;3.58;;
62790;SDS011;48830;53.426;10.300;2024-03-08T13:27:56;6.47;;;3.42;;
62790;SDS011;48830;53.426;10.300;2024-03-08T13:30:24;7.65;;;3.70;;
62790;SDS011;48830;53.426;10.300;2024-03-08T13:32:52;6.65;;;3.80;;
62790;SDS011;48830;53.426;10.300;2024-03-08T13:35:18;7.35;;;3.97;;
62790;SDS011;48830;53.426;10.300;2024-03-08T13:37:49;6.15;;;3.28;;
62790;SDS011;48830;53.426;10.300;2024-03-08T13:40:16;6.47;;;3.70;;
62790;SDS011;48830;53.426;10.300;2024-03-08T13:42:46;5.10;;;3.20;;
62790;SDS011;48830;53.426;10.300;2024-03-08T13:45:12;7.25;;;3.65;;
62790;SDS011;48830;53.426;10.300;2024-03-08T13:47:38;5.95;;;3.60;;
62790;SDS011;48830;53.426;10.300;2024-03-08T13:50:08;7.47;;;3.60;;
62790;SDS011;48830;53.426;10.300;2024-03-08T13:52:40;7.20;;;3.60;;
62790;SDS011;48830;53.426;10.300;2024-03-08T13:55:06;5.43;;;3.25;;
62790;SDS011;48830;53.426;10.300;2024-03-08T13:57:32;6.18;;;3.28;;
62790;SDS011;48830;53.426;10.300;2024-03-08T13:59:58;6.13;;;3.25;;
62790;SDS011;48830;53.426;10.300;2024-03-08T14:02:24;6.20;;;3.78;;
62790;SDS011;48830;53.426;10.300;2024-03-08T14:04:54;6.47;;;3.65;;
62790;SDS011;48830;53.426;10.300;2024-03-08T14:07:23;6.30;;;3.40;;
62790;SDS011;48830;53.426;10.300;2024-03-08T14:09:48;6.10;;;3.60;;
62790;SDS011;48830;53.426;10.300;2024-03-08T14:12:15;7.22;;;3.47;;
62790;SDS011;48830;53.426;10.300;2024-03-08T14:14:40;6.20;;;3.25;;
62790;SDS011;48830;53.426;10.300;2024-03-08T14:17:07;6.15;;;3.20;;
62790;SDS011;48830;53.426;10.300;2024-03-08T14:19:34;7.10;;;3.72;;
62790;SDS011;48830;53.426;10.300;2024-03-08T14:22:00;7.43;;;3.25;;
62790;SDS011;48830;53.426;10.300;2024-03-08T14:24:29;5.90;;;3.50;;
62790;SDS011;48830;53.426;10.300;2024-03-08T14:26:55;5.80;;;3.35;;
62790;SDS011;48830;53.426;10.300;2024-03-08T14:29:21;5.35;;;3.22;;
62790;SDS011;48830;53.426;10.300;2024-03-08T14:31:47;5.40;;;3.28;;
62790;SDS011;48830;53.426;10.300;2024-03-08T14:34:12;6.97;;;3.50;;
62790;SDS011;48830;53.426;10.300;2024-03-08T14:36:39;6.10;;;3.20;;
62790;SDS011;48830;53.426;10.300;2024-03-08T14:39:05;6.85;;;3.53;;
62790;SDS011;48830;53.426;10.300;2024-03-08T14:41:32;5.20;;;3.40;;
62790;SDS011;48830;53.426;10.300;2024-03-08T14:43:58;5.95;;;3.38;;
62790;SDS011;48830;53.426;10.300;2024-03-08T14:46:24;5.80;;;3.53;;
62790;SDS011;48830;53.426;10.300;2024-03-08T14:48:55;6.20;;;3.40;;